TTW552 VVDN-RCTP
Flight info
| Callsign | TTW552 |
|---|---|
| Flight time | 2h 44m |
| Altitude | 39000 |
| Route | BUNTA2G BUNTA A1 IKELA/N0454F390 A1 IDOSI DCT KAPLI G86 ANDRE A577 TNN TNN1A |
| Aircraft | A320/M-SDE3FGHIRWY/LB1 |
Departure
| Time | 2026-04-26 00:29 |
|---|---|
| Airport | Da Nang International Airport (VVDN) |
Arrival
| Time | 2026-04-26 03:13 |
|---|---|
| Airport | Taiwan Taoyuan International Airport (RCTP) |
| Time | Latitude | Longitude | Altitude | Speed | Heading |
|---|---|---|---|---|---|
| 2026-04-26 00:16 | 16.05693 | 108.20145 | 43 ft | 0 kts | 81° |
| 2026-04-26 00:16 | 16.05693 | 108.20144 | 43 ft | 1 kts | 81° |
| 2026-04-26 00:16 | 16.05691 | 108.20129 | 43 ft | 2 kts | 81° |
| 2026-04-26 00:17 | 16.05689 | 108.20113 | 43 ft | 2 kts | 81° |
| 2026-04-26 00:17 | 16.05686 | 108.20097 | 43 ft | 2 kts | 81° |
| 2026-04-26 00:17 | 16.05684 | 108.20082 | 43 ft | 2 kts | 81° |
| 2026-04-26 00:17 | 16.05685 | 108.20066 | 43 ft | 2 kts | 111° |
| 2026-04-26 00:18 | 16.05692 | 108.20053 | 43 ft | 2 kts | 135° |
| 2026-04-26 00:18 | 16.05705 | 108.20044 | 43 ft | 2 kts | 160° |
| 2026-04-26 00:18 | 16.05712 | 108.20042 | 43 ft | 1 kts | 173° |
| 2026-04-26 00:18 | 16.05716 | 108.20042 | 43 ft | 0 kts | 169° |
| 2026-04-26 00:21 | 16.05711 | 108.20042 | 43 ft | 1 kts | 169° |
| 2026-04-26 00:21 | 16.05694 | 108.20045 | 44 ft | 2 kts | 182° |
| 2026-04-26 00:22 | 16.05675 | 108.20035 | 44 ft | 3 kts | 237° |
| 2026-04-26 00:22 | 16.05663 | 108.20003 | 44 ft | 5 kts | 244° |
| 2026-04-26 00:22 | 16.05627 | 108.20000 | 44 ft | 6 kts | 175° |
| 2026-04-26 00:22 | 16.05575 | 108.20007 | 44 ft | 8 kts | 171° |
| 2026-04-26 00:23 | 16.05512 | 108.20019 | 44 ft | 10 kts | 171° |
| 2026-04-26 00:23 | 16.05440 | 108.20029 | 45 ft | 10 kts | 173° |
| 2026-04-26 00:23 | 16.05367 | 108.20038 | 47 ft | 10 kts | 173° |
| 2026-04-26 00:23 | 16.05294 | 108.20048 | 47 ft | 11 kts | 173° |
| 2026-04-26 00:24 | 16.05211 | 108.20058 | 47 ft | 12 kts | 172° |
| 2026-04-26 00:24 | 16.05121 | 108.20071 | 47 ft | 13 kts | 172° |
| 2026-04-26 00:24 | 16.05024 | 108.20084 | 48 ft | 14 kts | 172° |
| 2026-04-26 00:24 | 16.04887 | 108.20104 | 50 ft | 25 kts | 172° |
| 2026-04-26 00:25 | 16.04701 | 108.20131 | 51 ft | 26 kts | 172° |
| 2026-04-26 00:25 | 16.04519 | 108.20158 | 51 ft | 25 kts | 171° |
| 2026-04-26 00:25 | 16.04346 | 108.20185 | 51 ft | 24 kts | 172° |
| 2026-04-26 00:25 | 16.04178 | 108.20209 | 51 ft | 23 kts | 172° |
| 2026-04-26 00:26 | 16.04018 | 108.20233 | 52 ft | 22 kts | 171° |
| 2026-04-26 00:26 | 16.03866 | 108.20257 | 54 ft | 21 kts | 172° |
| 2026-04-26 00:26 | 16.03717 | 108.20278 | 52 ft | 22 kts | 172° |
| 2026-04-26 00:26 | 16.03562 | 108.20300 | 51 ft | 22 kts | 172° |
| 2026-04-26 00:27 | 16.03411 | 108.20322 | 51 ft | 21 kts | 172° |
| 2026-04-26 00:27 | 16.03261 | 108.20343 | 52 ft | 20 kts | 172° |
| 2026-04-26 00:27 | 16.03122 | 108.20362 | 54 ft | 19 kts | 172° |
| 2026-04-26 00:27 | 16.02986 | 108.20380 | 54 ft | 19 kts | 177° |
| 2026-04-26 00:28 | 16.02924 | 108.20282 | 55 ft | 16 kts | 264° |
| 2026-04-26 00:28 | 16.02990 | 108.20239 | 55 ft | 21 kts | 353° |
| 2026-04-26 00:28 | 16.03321 | 108.20192 | 52 ft | 83 kts | 352° |
| 2026-04-26 00:28 | 16.04123 | 108.20077 | 54 ft | 146 kts | 352° |
| 2026-04-26 00:29 | 16.05235 | 108.19914 | 443 ft | 164 kts | 351° |
| 2026-04-26 00:29 | 16.06333 | 108.19767 | 1132 ft | 163 kts | 357° |
| 2026-04-26 00:29 | 16.07488 | 108.19729 | 1723 ft | 172 kts | 360° |
| 2026-04-26 00:29 | 16.08734 | 108.19721 | 2136 ft | 187 kts | 1° |
| 2026-04-26 00:30 | 16.10115 | 108.19717 | 2546 ft | 204 kts | 1° |
| 2026-04-26 00:30 | 16.11632 | 108.19704 | 2889 ft | 228 kts | 1° |
| 2026-04-26 00:30 | 16.13290 | 108.19682 | 3390 ft | 247 kts | 0° |
| 2026-04-26 00:30 | 16.15082 | 108.19651 | 3920 ft | 265 kts | 0° |
| 2026-04-26 00:31 | 16.16952 | 108.19616 | 4662 ft | 274 kts | 0° |
| 2026-04-26 00:31 | 16.18856 | 108.19578 | 5535 ft | 277 kts | 0° |
| 2026-04-26 00:31 | 16.20799 | 108.19538 | 6398 ft | 281 kts | 0° |
| 2026-04-26 00:31 | 16.22752 | 108.19500 | 7253 ft | 284 kts | 360° |
| 2026-04-26 00:32 | 16.24744 | 108.19460 | 8121 ft | 287 kts | 359° |
| 2026-04-26 00:32 | 16.26725 | 108.19423 | 8962 ft | 289 kts | 359° |
| 2026-04-26 00:32 | 16.30817 | 108.19527 | 10517 ft | 297 kts | 13° |
| 2026-04-26 00:33 | 16.32739 | 108.20435 | 10899 ft | 315 kts | 36° |
| 2026-04-26 00:33 | 16.34266 | 108.22178 | 11213 ft | 335 kts | 59° |
| 2026-04-26 00:33 | 16.35117 | 108.24512 | 11624 ft | 349 kts | 72° |
| 2026-04-26 00:33 | 16.35812 | 108.26936 | 12224 ft | 355 kts | 72° |
| 2026-04-26 00:34 | 16.36544 | 108.29432 | 12854 ft | 359 kts | 71° |
| 2026-04-26 00:34 | 16.37295 | 108.31959 | 13459 ft | 363 kts | 71° |
| 2026-04-26 00:34 | 16.38061 | 108.34506 | 14065 ft | 367 kts | 71° |
| 2026-04-26 00:34 | 16.38838 | 108.37083 | 14675 ft | 369 kts | 71° |
| 2026-04-26 00:35 | 16.39609 | 108.39637 | 15252 ft | 372 kts | 71° |
| 2026-04-26 00:35 | 16.40392 | 108.42232 | 15816 ft | 375 kts | 71° |
| 2026-04-26 00:35 | 16.41181 | 108.44841 | 16369 ft | 377 kts | 71° |
| 2026-04-26 00:35 | 16.41967 | 108.47444 | 16908 ft | 379 kts | 71° |
| 2026-04-26 00:36 | 16.42762 | 108.50081 | 17436 ft | 381 kts | 71° |
| 2026-04-26 00:36 | 16.43567 | 108.52751 | 17927 ft | 385 kts | 71° |
| 2026-04-26 00:36 | 16.44374 | 108.55428 | 18366 ft | 389 kts | 70° |
| 2026-04-26 00:36 | 16.45199 | 108.58169 | 18798 ft | 393 kts | 71° |
| 2026-04-26 00:37 | 16.45984 | 108.60933 | 19217 ft | 398 kts | 72° |
| 2026-04-26 00:37 | 16.46753 | 108.63732 | 19634 ft | 402 kts | 72° |
| 2026-04-26 00:37 | 16.47527 | 108.66555 | 20046 ft | 406 kts | 72° |
| 2026-04-26 00:37 | 16.48308 | 108.69401 | 20448 ft | 409 kts | 72° |
| 2026-04-26 00:38 | 16.49095 | 108.72266 | 20835 ft | 413 kts | 72° |
| 2026-04-26 00:38 | 16.49887 | 108.75143 | 21206 ft | 416 kts | 72° |
| 2026-04-26 00:38 | 16.50689 | 108.78052 | 21561 ft | 420 kts | 72° |
| 2026-04-26 00:38 | 16.51507 | 108.81023 | 21907 ft | 424 kts | 72° |
| 2026-04-26 00:39 | 16.52324 | 108.83991 | 22257 ft | 427 kts | 72° |
| 2026-04-26 00:39 | 16.53149 | 108.86987 | 22604 ft | 431 kts | 72° |
| 2026-04-26 00:39 | 16.53979 | 108.90004 | 22958 ft | 434 kts | 72° |
| 2026-04-26 00:39 | 16.54811 | 108.93029 | 23322 ft | 437 kts | 71° |
| 2026-04-26 00:40 | 16.55808 | 108.96026 | 23688 ft | 437 kts | 65° |
| 2026-04-26 00:40 | 16.57137 | 108.98929 | 24062 ft | 437 kts | 58° |
| 2026-04-26 00:40 | 16.58742 | 109.01638 | 24434 ft | 438 kts | 53° |
| 2026-04-26 00:40 | 16.60461 | 109.04286 | 24795 ft | 440 kts | 52° |
| 2026-04-26 00:41 | 16.62208 | 109.06934 | 25151 ft | 443 kts | 52° |
| 2026-04-26 00:41 | 16.63962 | 109.09598 | 25500 ft | 445 kts | 52° |
| 2026-04-26 00:41 | 16.65711 | 109.12270 | 25854 ft | 448 kts | 53° |
| 2026-04-26 00:41 | 16.67481 | 109.14983 | 26205 ft | 450 kts | 53° |
| 2026-04-26 00:42 | 16.69257 | 109.17718 | 26556 ft | 453 kts | 53° |
| 2026-04-26 00:42 | 16.71046 | 109.20476 | 26901 ft | 455 kts | 53° |
| 2026-04-26 00:42 | 16.72832 | 109.23232 | 27245 ft | 458 kts | 53° |
| 2026-04-26 00:42 | 16.74616 | 109.25987 | 27583 ft | 460 kts | 53° |
| 2026-04-26 00:43 | 16.76418 | 109.28772 | 27927 ft | 462 kts | 53° |
| 2026-04-26 00:43 | 16.78230 | 109.31572 | 28248 ft | 465 kts | 53° |
| 2026-04-26 00:43 | 16.80042 | 109.34376 | 28560 ft | 468 kts | 52° |
| 2026-04-26 00:43 | 16.81889 | 109.37233 | 28871 ft | 471 kts | 52° |
| 2026-04-26 00:44 | 16.83717 | 109.40058 | 29168 ft | 473 kts | 52° |
| 2026-04-26 00:44 | 16.85572 | 109.42919 | 29472 ft | 476 kts | 52° |
| 2026-04-26 00:44 | 16.87438 | 109.45793 | 29769 ft | 478 kts | 52° |
| 2026-04-26 00:44 | 16.89311 | 109.48682 | 30045 ft | 481 kts | 52° |
| 2026-04-26 00:45 | 16.91196 | 109.51594 | 30353 ft | 483 kts | 53° |
| 2026-04-26 00:45 | 16.93082 | 109.54511 | 30759 ft | 482 kts | 52° |
| 2026-04-26 00:45 | 16.94957 | 109.57413 | 31177 ft | 481 kts | 52° |
| 2026-04-26 00:45 | 16.96815 | 109.60288 | 31564 ft | 481 kts | 53° |
| 2026-04-26 00:46 | 16.98696 | 109.63199 | 31952 ft | 481 kts | 53° |
| 2026-04-26 00:46 | 17.00579 | 109.66116 | 32346 ft | 480 kts | 53° |
| 2026-04-26 00:46 | 17.02430 | 109.68985 | 32697 ft | 480 kts | 53° |
| 2026-04-26 00:46 | 17.04307 | 109.71896 | 33063 ft | 481 kts | 53° |
| 2026-04-26 00:47 | 17.06169 | 109.74786 | 33456 ft | 480 kts | 53° |
| 2026-04-26 00:47 | 17.08053 | 109.77713 | 33861 ft | 480 kts | 53° |
| 2026-04-26 00:47 | 17.09906 | 109.80590 | 34271 ft | 479 kts | 53° |
| 2026-04-26 00:47 | 17.11794 | 109.83523 | 34684 ft | 478 kts | 53° |
| 2026-04-26 00:48 | 17.13631 | 109.86379 | 35071 ft | 477 kts | 53° |
| 2026-04-26 00:48 | 17.15498 | 109.89285 | 35467 ft | 476 kts | 53° |
| 2026-04-26 00:48 | 17.17326 | 109.92128 | 35837 ft | 475 kts | 53° |
| 2026-04-26 00:48 | 17.19173 | 109.95003 | 36183 ft | 475 kts | 52° |
| 2026-04-26 00:49 | 17.21044 | 109.97913 | 36486 ft | 475 kts | 52° |
| 2026-04-26 00:49 | 17.22884 | 110.00776 | 36767 ft | 476 kts | 52° |
| 2026-04-26 00:49 | 17.24747 | 110.03677 | 37052 ft | 476 kts | 52° |
| 2026-04-26 00:49 | 17.26580 | 110.06535 | 37324 ft | 477 kts | 52° |
| 2026-04-26 00:50 | 17.28436 | 110.09428 | 37555 ft | 478 kts | 52° |
| 2026-04-26 00:50 | 17.30302 | 110.12339 | 37769 ft | 479 kts | 52° |
| 2026-04-26 00:50 | 17.32159 | 110.15238 | 37990 ft | 480 kts | 52° |
| 2026-04-26 00:50 | 17.34021 | 110.18147 | 38183 ft | 481 kts | 52° |
| 2026-04-26 00:51 | 17.35885 | 110.21060 | 38383 ft | 482 kts | 52° |
| 2026-04-26 00:51 | 17.37754 | 110.23981 | 38570 ft | 483 kts | 52° |
| 2026-04-26 00:51 | 17.39603 | 110.26873 | 38752 ft | 484 kts | 52° |
| 2026-04-26 00:51 | 17.41480 | 110.29807 | 38937 ft | 485 kts | 52° |
| 2026-04-26 00:52 | 17.45306 | 110.35711 | 38956 ft | 486 kts | 51° |
| 2026-04-26 00:52 | 17.49135 | 110.41589 | 38954 ft | 487 kts | 52° |
| 2026-04-26 00:53 | 17.52935 | 110.47440 | 38957 ft | 488 kts | 52° |
| 2026-04-26 00:53 | 17.56778 | 110.53368 | 38958 ft | 488 kts | 52° |
| 2026-04-26 00:54 | 17.60593 | 110.59259 | 38955 ft | 488 kts | 52° |
| 2026-04-26 00:54 | 17.64421 | 110.65179 | 38956 ft | 489 kts | 52° |
| 2026-04-26 00:55 | 17.68220 | 110.71057 | 38953 ft | 489 kts | 52° |
| 2026-04-26 00:55 | 17.72035 | 110.76965 | 38951 ft | 490 kts | 52° |
| 2026-04-26 00:56 | 17.75861 | 110.82894 | 38949 ft | 489 kts | 52° |
| 2026-04-26 00:56 | 17.79657 | 110.88785 | 38949 ft | 488 kts | 52° |
| 2026-04-26 00:57 | 17.83474 | 110.94709 | 38946 ft | 489 kts | 52° |
| 2026-04-26 00:57 | 17.87290 | 111.00642 | 38937 ft | 488 kts | 52° |
| 2026-04-26 00:58 | 17.91070 | 111.06522 | 38936 ft | 489 kts | 51° |
| 2026-04-26 00:58 | 17.94878 | 111.12451 | 38936 ft | 489 kts | 52° |
| 2026-04-26 00:59 | 17.98687 | 111.18385 | 38936 ft | 490 kts | 52° |
| 2026-04-26 00:59 | 18.02491 | 111.24320 | 38938 ft | 491 kts | 51° |
| 2026-04-26 01:00 | 18.06325 | 111.30302 | 38944 ft | 492 kts | 51° |
| 2026-04-26 01:00 | 18.10144 | 111.36270 | 38949 ft | 493 kts | 52° |
| 2026-04-26 01:01 | 18.13952 | 111.42229 | 38952 ft | 492 kts | 51° |
| 2026-04-26 01:01 | 18.17788 | 111.48233 | 38950 ft | 493 kts | 51° |
| 2026-04-26 01:02 | 18.21589 | 111.54185 | 38949 ft | 493 kts | 52° |
| 2026-04-26 01:02 | 18.25414 | 111.60185 | 38948 ft | 494 kts | 51° |
| 2026-04-26 01:03 | 18.29229 | 111.66179 | 38946 ft | 493 kts | 52° |
| 2026-04-26 01:03 | 18.33058 | 111.72192 | 38950 ft | 494 kts | 52° |
| 2026-04-26 01:04 | 18.36873 | 111.78191 | 38947 ft | 494 kts | 52° |
| 2026-04-26 01:04 | 18.40692 | 111.84207 | 38957 ft | 494 kts | 52° |
| 2026-04-26 01:05 | 18.44498 | 111.90204 | 38956 ft | 494 kts | 52° |
| 2026-04-26 01:05 | 18.48331 | 111.96249 | 38953 ft | 494 kts | 52° |
| 2026-04-26 01:06 | 18.52136 | 112.02261 | 38957 ft | 494 kts | 52° |
| 2026-04-26 01:06 | 18.55943 | 112.08278 | 38960 ft | 495 kts | 52° |
| 2026-04-26 01:07 | 18.59751 | 112.14300 | 38956 ft | 496 kts | 52° |
| 2026-04-26 01:07 | 18.63756 | 112.20211 | 38956 ft | 493 kts | 46° |
| 2026-04-26 01:08 | 18.68364 | 112.25506 | 38958 ft | 487 kts | 38° |
| 2026-04-26 01:08 | 18.73534 | 112.30080 | 38959 ft | 481 kts | 30° |
| 2026-04-26 01:09 | 18.78968 | 112.34158 | 38960 ft | 481 kts | 29° |
| 2026-04-26 01:09 | 18.84462 | 112.38257 | 38958 ft | 481 kts | 29° |
| 2026-04-26 01:10 | 18.89926 | 112.42370 | 38957 ft | 483 kts | 29° |
| 2026-04-26 01:10 | 18.95262 | 112.46668 | 38957 ft | 487 kts | 36° |
| 2026-04-26 01:11 | 18.99965 | 112.51913 | 38957 ft | 496 kts | 47° |
| 2026-04-26 01:11 | 19.03756 | 112.58090 | 38957 ft | 504 kts | 58° |
| 2026-04-26 01:12 | 19.06792 | 112.64742 | 38957 ft | 505 kts | 61° |
| 2026-04-26 01:12 | 19.09762 | 112.71448 | 38956 ft | 505 kts | 61° |
| 2026-04-26 01:13 | 19.12759 | 112.78154 | 38959 ft | 504 kts | 61° |
| 2026-04-26 01:13 | 19.15766 | 112.84840 | 38957 ft | 504 kts | 61° |
| 2026-04-26 01:14 | 19.18785 | 112.91543 | 38955 ft | 506 kts | 61° |
| 2026-04-26 01:14 | 19.21823 | 112.98296 | 38957 ft | 507 kts | 61° |
| 2026-04-26 01:15 | 19.24821 | 113.04981 | 38957 ft | 506 kts | 61° |
| 2026-04-26 01:15 | 19.27846 | 113.11720 | 38958 ft | 506 kts | 61° |
| 2026-04-26 01:16 | 19.30847 | 113.18414 | 38960 ft | 505 kts | 61° |
| 2026-04-26 01:16 | 19.33853 | 113.25135 | 38959 ft | 506 kts | 60° |
| 2026-04-26 01:17 | 19.36860 | 113.31860 | 38961 ft | 506 kts | 61° |
| 2026-04-26 01:17 | 19.39870 | 113.38601 | 38962 ft | 506 kts | 60° |
| 2026-04-26 01:18 | 19.42884 | 113.45361 | 38965 ft | 506 kts | 60° |
| 2026-04-26 01:18 | 19.45886 | 113.52102 | 38967 ft | 506 kts | 60° |
| 2026-04-26 01:19 | 19.48882 | 113.58835 | 38967 ft | 507 kts | 60° |
| 2026-04-26 01:19 | 19.51880 | 113.65575 | 38967 ft | 507 kts | 61° |
| 2026-04-26 01:20 | 19.54898 | 113.72374 | 38970 ft | 508 kts | 61° |
| 2026-04-26 01:20 | 19.57894 | 113.79139 | 38968 ft | 507 kts | 61° |
| 2026-04-26 01:21 | 19.60875 | 113.85867 | 38973 ft | 507 kts | 60° |
| 2026-04-26 01:21 | 19.63881 | 113.92662 | 38976 ft | 508 kts | 61° |
| 2026-04-26 01:22 | 19.66879 | 113.99451 | 38974 ft | 508 kts | 61° |
| 2026-04-26 01:22 | 19.69877 | 114.06249 | 38979 ft | 509 kts | 61° |
| 2026-04-26 01:23 | 19.72856 | 114.13014 | 38979 ft | 509 kts | 60° |
| 2026-04-26 01:23 | 19.75858 | 114.19836 | 38978 ft | 509 kts | 60° |
| 2026-04-26 01:24 | 19.78851 | 114.26644 | 38981 ft | 508 kts | 60° |
| 2026-04-26 01:24 | 19.81822 | 114.33412 | 38979 ft | 509 kts | 60° |
| 2026-04-26 01:25 | 19.84808 | 114.40223 | 38981 ft | 509 kts | 60° |
| 2026-04-26 01:25 | 19.87806 | 114.47066 | 38976 ft | 510 kts | 60° |
| 2026-04-26 01:26 | 19.90784 | 114.53875 | 38980 ft | 510 kts | 60° |
| 2026-04-26 01:26 | 19.93772 | 114.60716 | 38977 ft | 509 kts | 60° |
| 2026-04-26 01:27 | 19.96743 | 114.67521 | 38974 ft | 510 kts | 60° |
| 2026-04-26 01:27 | 19.99716 | 114.74348 | 38977 ft | 509 kts | 61° |
| 2026-04-26 01:28 | 20.02674 | 114.81141 | 38977 ft | 509 kts | 61° |
| 2026-04-26 01:28 | 20.05646 | 114.87984 | 38977 ft | 509 kts | 61° |
| 2026-04-26 01:29 | 20.08600 | 114.94782 | 38978 ft | 510 kts | 61° |
| 2026-04-26 01:29 | 20.11581 | 115.01661 | 38980 ft | 509 kts | 61° |
| 2026-04-26 01:30 | 20.14536 | 115.08488 | 38979 ft | 509 kts | 61° |
| 2026-04-26 01:30 | 20.17487 | 115.15313 | 38980 ft | 508 kts | 60° |
| 2026-04-26 01:31 | 20.20441 | 115.22152 | 38980 ft | 509 kts | 60° |
| 2026-04-26 01:31 | 20.23389 | 115.28983 | 38984 ft | 509 kts | 60° |
| 2026-04-26 01:32 | 20.26337 | 115.35831 | 38984 ft | 510 kts | 61° |
| 2026-04-26 01:32 | 20.29294 | 115.42695 | 38986 ft | 511 kts | 61° |
| 2026-04-26 01:33 | 20.32232 | 115.49542 | 38986 ft | 509 kts | 60° |
| 2026-04-26 01:33 | 20.35177 | 115.56403 | 38986 ft | 508 kts | 60° |
| 2026-04-26 01:34 | 20.38117 | 115.63255 | 38985 ft | 511 kts | 61° |
| 2026-04-26 01:34 | 20.41060 | 115.70132 | 38988 ft | 511 kts | 61° |
| 2026-04-26 01:35 | 20.44011 | 115.77042 | 38993 ft | 512 kts | 61° |
| 2026-04-26 01:35 | 20.46942 | 115.83907 | 38993 ft | 510 kts | 61° |
| 2026-04-26 01:36 | 20.49869 | 115.90772 | 38994 ft | 510 kts | 60° |
| 2026-04-26 01:37 | 20.54281 | 116.01135 | 38994 ft | 512 kts | 61° |
| 2026-04-26 01:37 | 20.57213 | 116.08037 | 38999 ft | 512 kts | 61° |
| 2026-04-26 01:38 | 20.60150 | 116.14956 | 38997 ft | 513 kts | 61° |
| 2026-04-26 01:38 | 20.63077 | 116.21867 | 38995 ft | 512 kts | 61° |
| 2026-04-26 01:39 | 20.66009 | 116.28796 | 38997 ft | 512 kts | 61° |
| 2026-04-26 01:39 | 20.68933 | 116.35715 | 38992 ft | 511 kts | 61° |
| 2026-04-26 01:40 | 20.71853 | 116.42626 | 38990 ft | 512 kts | 61° |
| 2026-04-26 01:40 | 20.74773 | 116.49556 | 38989 ft | 512 kts | 61° |
| 2026-04-26 01:41 | 20.77697 | 116.56495 | 38994 ft | 512 kts | 61° |
| 2026-04-26 01:41 | 20.80608 | 116.63421 | 38989 ft | 513 kts | 61° |
| 2026-04-26 01:42 | 20.83517 | 116.70348 | 38994 ft | 513 kts | 61° |
| 2026-04-26 01:42 | 20.86422 | 116.77277 | 38996 ft | 512 kts | 62° |
| 2026-04-26 01:43 | 20.89326 | 116.84218 | 38991 ft | 512 kts | 61° |
| 2026-04-26 01:43 | 20.92236 | 116.91174 | 38991 ft | 513 kts | 62° |
| 2026-04-26 01:44 | 20.95148 | 116.98152 | 39000 ft | 513 kts | 61° |
| 2026-04-26 01:44 | 20.98064 | 117.05136 | 39005 ft | 514 kts | 61° |
| 2026-04-26 01:45 | 21.00965 | 117.12110 | 38992 ft | 513 kts | 62° |
| 2026-04-26 01:45 | 21.03866 | 117.19084 | 38991 ft | 512 kts | 61° |
| 2026-04-26 01:46 | 21.06759 | 117.26042 | 39010 ft | 514 kts | 62° |
| 2026-04-26 01:46 | 21.09656 | 117.33038 | 38996 ft | 512 kts | 62° |
| 2026-04-26 01:47 | 21.12557 | 117.40045 | 38997 ft | 511 kts | 62° |
| 2026-04-26 01:47 | 21.15408 | 117.46984 | 39006 ft | 513 kts | 64° |
| 2026-04-26 01:48 | 21.17728 | 117.54242 | 38999 ft | 518 kts | 71° |
| 2026-04-26 01:48 | 21.19516 | 117.61721 | 39004 ft | 518 kts | 73° |
| 2026-04-26 01:49 | 21.21266 | 117.69229 | 39007 ft | 518 kts | 73° |
| 2026-04-26 01:49 | 21.23022 | 117.76681 | 39000 ft | 518 kts | 73° |
| 2026-04-26 01:50 | 21.24785 | 117.84127 | 38999 ft | 517 kts | 73° |
| 2026-04-26 01:50 | 21.26554 | 117.91611 | 39009 ft | 518 kts | 73° |
| 2026-04-26 01:51 | 21.28315 | 117.99089 | 39003 ft | 517 kts | 73° |
| 2026-04-26 01:51 | 21.30075 | 118.06574 | 38993 ft | 517 kts | 73° |
| 2026-04-26 01:52 | 21.31830 | 118.14028 | 39001 ft | 518 kts | 73° |
| 2026-04-26 01:52 | 21.33593 | 118.21542 | 39003 ft | 517 kts | 73° |
| 2026-04-26 01:53 | 21.35335 | 118.29012 | 39002 ft | 517 kts | 73° |
| 2026-04-26 01:53 | 21.37096 | 118.36556 | 38998 ft | 517 kts | 73° |
| 2026-04-26 01:54 | 21.38854 | 118.44099 | 38989 ft | 518 kts | 73° |
| 2026-04-26 01:54 | 21.40611 | 118.51644 | 39001 ft | 519 kts | 73° |
| 2026-04-26 01:55 | 21.42360 | 118.59212 | 38993 ft | 519 kts | 73° |
| 2026-04-26 01:55 | 21.44105 | 118.66760 | 38987 ft | 519 kts | 74° |
| 2026-04-26 01:56 | 21.45859 | 118.74348 | 39003 ft | 520 kts | 74° |
| 2026-04-26 01:56 | 21.47588 | 118.81869 | 38993 ft | 521 kts | 74° |
| 2026-04-26 01:57 | 21.49331 | 118.89449 | 38981 ft | 520 kts | 74° |
| 2026-04-26 01:57 | 21.51075 | 118.97057 | 38997 ft | 522 kts | 74° |
| 2026-04-26 01:58 | 21.52814 | 119.04675 | 38986 ft | 521 kts | 74° |
| 2026-04-26 01:58 | 21.54553 | 119.12281 | 38990 ft | 522 kts | 74° |
| 2026-04-26 01:59 | 21.56280 | 119.19878 | 38985 ft | 522 kts | 74° |
| 2026-04-26 01:59 | 21.58001 | 119.27452 | 38981 ft | 521 kts | 74° |
| 2026-04-26 02:00 | 21.59730 | 119.35073 | 38987 ft | 522 kts | 74° |
| 2026-04-26 02:00 | 21.61445 | 119.42664 | 38981 ft | 522 kts | 74° |
| 2026-04-26 02:01 | 21.63160 | 119.50255 | 38984 ft | 522 kts | 74° |
| 2026-04-26 02:01 | 21.64873 | 119.57851 | 38986 ft | 524 kts | 75° |
| 2026-04-26 02:02 | 21.66592 | 119.65496 | 38981 ft | 525 kts | 75° |
| 2026-04-26 02:02 | 21.68301 | 119.73150 | 38977 ft | 525 kts | 75° |
| 2026-04-26 02:03 | 21.70001 | 119.80738 | 38973 ft | 524 kts | 75° |
| 2026-04-26 02:03 | 21.71788 | 119.88391 | 38971 ft | 525 kts | 69° |
| 2026-04-26 02:03 | 21.73286 | 119.91979 | 38974 ft | 519 kts | 55° |
| 2026-04-26 02:04 | 21.75393 | 119.95104 | 38974 ft | 510 kts | 42° |
| 2026-04-26 02:04 | 21.77998 | 119.97659 | 38977 ft | 499 kts | 29° |
| 2026-04-26 02:04 | 21.80947 | 119.99568 | 38973 ft | 486 kts | 17° |
| 2026-04-26 02:04 | 21.84080 | 120.00807 | 38984 ft | 472 kts | 5° |
| 2026-04-26 02:05 | 21.87347 | 120.01453 | 38988 ft | 464 kts | 358° |
| 2026-04-26 02:05 | 21.93734 | 120.02272 | 38979 ft | 462 kts | 357° |
| 2026-04-26 02:06 | 22.00164 | 120.03172 | 38979 ft | 466 kts | 358° |
| 2026-04-26 02:06 | 22.06572 | 120.04148 | 38974 ft | 463 kts | 359° |
| 2026-04-26 02:07 | 22.13016 | 120.05140 | 38978 ft | 465 kts | 359° |
| 2026-04-26 02:07 | 22.19446 | 120.06128 | 38981 ft | 466 kts | 359° |
| 2026-04-26 02:08 | 22.25912 | 120.07122 | 38976 ft | 465 kts | 359° |
| 2026-04-26 02:08 | 22.32348 | 120.08112 | 38981 ft | 465 kts | 359° |
| 2026-04-26 02:09 | 22.38778 | 120.09094 | 38986 ft | 465 kts | 359° |
| 2026-04-26 02:09 | 22.45235 | 120.10079 | 38996 ft | 464 kts | 359° |
| 2026-04-26 02:10 | 22.51632 | 120.11056 | 38995 ft | 464 kts | 359° |
| 2026-04-26 02:10 | 22.58036 | 120.12037 | 38999 ft | 463 kts | 359° |
| 2026-04-26 02:11 | 22.64449 | 120.13020 | 39003 ft | 464 kts | 359° |
| 2026-04-26 02:11 | 22.70881 | 120.14004 | 39003 ft | 465 kts | 359° |
| 2026-04-26 02:12 | 22.77305 | 120.14992 | 39006 ft | 463 kts | 359° |
| 2026-04-26 02:12 | 22.83718 | 120.15979 | 39010 ft | 465 kts | 359° |
| 2026-04-26 02:13 | 22.90144 | 120.16980 | 39012 ft | 463 kts | 359° |
| 2026-04-26 02:13 | 22.96567 | 120.17977 | 39011 ft | 464 kts | 359° |
| 2026-04-26 02:14 | 23.02974 | 120.18975 | 39011 ft | 463 kts | 359° |
| 2026-04-26 02:14 | 23.09417 | 120.19979 | 39007 ft | 463 kts | 359° |
| 2026-04-26 02:15 | 23.15853 | 120.20941 | 39009 ft | 461 kts | 358° |
| 2026-04-26 02:15 | 23.22214 | 120.21688 | 39004 ft | 460 kts | 357° |
| 2026-04-26 02:16 | 23.28615 | 120.22426 | 39003 ft | 460 kts | 357° |
| 2026-04-26 02:16 | 23.34973 | 120.23177 | 39006 ft | 458 kts | 357° |
| 2026-04-26 02:17 | 23.41324 | 120.23933 | 39000 ft | 458 kts | 357° |
| 2026-04-26 02:17 | 23.47677 | 120.24693 | 39000 ft | 457 kts | 357° |
| 2026-04-26 02:18 | 23.54046 | 120.25452 | 39004 ft | 458 kts | 357° |
| 2026-04-26 02:18 | 23.60356 | 120.26207 | 38999 ft | 457 kts | 358° |
| 2026-04-26 02:19 | 23.66746 | 120.27003 | 39000 ft | 459 kts | 359° |
| 2026-04-26 02:19 | 23.73047 | 120.28370 | 38996 ft | 466 kts | 6° |
| 2026-04-26 02:20 | 23.79279 | 120.30423 | 39001 ft | 468 kts | 9° |
| 2026-04-26 02:20 | 23.85512 | 120.32600 | 38968 ft | 464 kts | 9° |
| 2026-04-26 02:20 | 23.88579 | 120.33675 | 38424 ft | 456 kts | 9° |
| 2026-04-26 02:21 | 23.91569 | 120.34716 | 37129 ft | 456 kts | 9° |
| 2026-04-26 02:21 | 23.94595 | 120.35761 | 35550 ft | 457 kts | 10° |
| 2026-04-26 02:21 | 23.97579 | 120.36792 | 34355 ft | 446 kts | 10° |
| 2026-04-26 02:21 | 24.00481 | 120.37807 | 33491 ft | 429 kts | 11° |
| 2026-04-26 02:22 | 24.03318 | 120.38797 | 31962 ft | 430 kts | 10° |
| 2026-04-26 02:22 | 24.06150 | 120.39777 | 29877 ft | 441 kts | 10° |
| 2026-04-26 02:22 | 24.09064 | 120.40781 | 27951 ft | 444 kts | 11° |
| 2026-04-26 02:22 | 24.11963 | 120.41781 | 26390 ft | 436 kts | 11° |
| 2026-04-26 02:23 | 24.14834 | 120.42779 | 24974 ft | 426 kts | 12° |
| 2026-04-26 02:23 | 24.17602 | 120.43745 | 23574 ft | 415 kts | 12° |
| 2026-04-26 02:23 | 24.20320 | 120.44691 | 22186 ft | 405 kts | 13° |
| 2026-04-26 02:23 | 24.22947 | 120.45611 | 20843 ft | 396 kts | 13° |
| 2026-04-26 02:24 | 24.25513 | 120.46510 | 20127 ft | 378 kts | 13° |
| 2026-04-26 02:24 | 24.28026 | 120.47387 | 19727 ft | 373 kts | 13° |
| 2026-04-26 02:24 | 24.30477 | 120.48244 | 19296 ft | 369 kts | 13° |
| 2026-04-26 02:24 | 24.32939 | 120.49101 | 18847 ft | 367 kts | 13° |
| 2026-04-26 02:25 | 24.35385 | 120.49956 | 18390 ft | 366 kts | 13° |
| 2026-04-26 02:25 | 24.37824 | 120.50806 | 17932 ft | 364 kts | 12° |
| 2026-04-26 02:25 | 24.40227 | 120.51646 | 17449 ft | 361 kts | 12° |
| 2026-04-26 02:25 | 24.42609 | 120.52477 | 16940 ft | 357 kts | 13° |
| 2026-04-26 02:26 | 24.44980 | 120.53301 | 16417 ft | 354 kts | 13° |
| 2026-04-26 02:26 | 24.47317 | 120.54118 | 15866 ft | 350 kts | 13° |
| 2026-04-26 02:26 | 24.49642 | 120.54930 | 15350 ft | 346 kts | 13° |
| 2026-04-26 02:26 | 24.51941 | 120.55734 | 14816 ft | 343 kts | 13° |
| 2026-04-26 02:27 | 24.54192 | 120.56520 | 14273 ft | 339 kts | 13° |
| 2026-04-26 02:27 | 24.56439 | 120.57309 | 13755 ft | 336 kts | 14° |
| 2026-04-26 02:27 | 24.58680 | 120.58092 | 13246 ft | 332 kts | 14° |
| 2026-04-26 02:27 | 24.60870 | 120.58860 | 12739 ft | 329 kts | 14° |
| 2026-04-26 02:28 | 24.63049 | 120.59625 | 12190 ft | 326 kts | 14° |
| 2026-04-26 02:28 | 24.65189 | 120.60378 | 11659 ft | 323 kts | 15° |
| 2026-04-26 02:28 | 24.67272 | 120.61384 | 11132 ft | 323 kts | 26° |
| 2026-04-26 02:28 | 24.69106 | 120.62775 | 10726 ft | 310 kts | 37° |
| 2026-04-26 02:29 | 24.70678 | 120.64286 | 10509 ft | 293 kts | 38° |
| 2026-04-26 02:29 | 24.72163 | 120.65765 | 10313 ft | 285 kts | 39° |
| 2026-04-26 02:29 | 24.73624 | 120.67219 | 10147 ft | 280 kts | 39° |
| 2026-04-26 02:29 | 24.75083 | 120.68662 | 9935 ft | 278 kts | 39° |
| 2026-04-26 02:30 | 24.76521 | 120.70084 | 9572 ft | 277 kts | 39° |
| 2026-04-26 02:30 | 24.77937 | 120.71479 | 9203 ft | 274 kts | 39° |
| 2026-04-26 02:30 | 24.79351 | 120.72872 | 8861 ft | 272 kts | 39° |
| 2026-04-26 02:30 | 24.80771 | 120.74270 | 8480 ft | 270 kts | 39° |
| 2026-04-26 02:31 | 24.82175 | 120.75654 | 8137 ft | 268 kts | 39° |
| 2026-04-26 02:31 | 24.83556 | 120.77010 | 7829 ft | 266 kts | 39° |
| 2026-04-26 02:31 | 24.84934 | 120.78368 | 7491 ft | 265 kts | 40° |
| 2026-04-26 02:31 | 24.86304 | 120.79720 | 7140 ft | 263 kts | 40° |
| 2026-04-26 02:32 | 24.87665 | 120.81062 | 6817 ft | 261 kts | 40° |
| 2026-04-26 02:32 | 24.89022 | 120.82399 | 6485 ft | 260 kts | 40° |
| 2026-04-26 02:32 | 24.90360 | 120.83720 | 6159 ft | 258 kts | 40° |
| 2026-04-26 02:32 | 24.91521 | 120.85229 | 5804 ft | 259 kts | 63° |
| 2026-04-26 02:33 | 24.91915 | 120.87174 | 5458 ft | 260 kts | 90° |
| 2026-04-26 02:33 | 24.91805 | 120.89159 | 5158 ft | 258 kts | 94° |
| 2026-04-26 02:33 | 24.91667 | 120.91109 | 4849 ft | 257 kts | 93° |
| 2026-04-26 02:33 | 24.91539 | 120.93073 | 4527 ft | 255 kts | 93° |
| 2026-04-26 02:34 | 24.91426 | 120.95022 | 4222 ft | 251 kts | 92° |
| 2026-04-26 02:34 | 24.91326 | 120.96863 | 4172 ft | 231 kts | 92° |
| 2026-04-26 02:34 | 24.91237 | 120.98611 | 4137 ft | 226 kts | 92° |
| 2026-04-26 02:34 | 24.91149 | 121.00341 | 4100 ft | 225 kts | 92° |
| 2026-04-26 02:35 | 24.91063 | 121.02067 | 4070 ft | 225 kts | 91° |
| 2026-04-26 02:35 | 24.91263 | 121.03748 | 3960 ft | 222 kts | 61° |
| 2026-04-26 02:35 | 24.92161 | 121.05096 | 3702 ft | 218 kts | 45° |
| 2026-04-26 02:35 | 24.93219 | 121.06300 | 3436 ft | 215 kts | 43° |
| 2026-04-26 02:36 | 24.94250 | 121.07476 | 3215 ft | 213 kts | 45° |
| 2026-04-26 02:36 | 24.95255 | 121.08670 | 3050 ft | 212 kts | 46° |
| 2026-04-26 02:36 | 24.96242 | 121.09882 | 3039 ft | 212 kts | 47° |
| 2026-04-26 02:36 | 24.97227 | 121.11114 | 3033 ft | 212 kts | 47° |
| 2026-04-26 02:37 | 24.98201 | 121.12341 | 3035 ft | 213 kts | 47° |
| 2026-04-26 02:37 | 24.99173 | 121.13572 | 3034 ft | 213 kts | 47° |
| 2026-04-26 02:37 | 25.00156 | 121.14819 | 3031 ft | 213 kts | 47° |
| 2026-04-26 02:37 | 25.01137 | 121.16061 | 3033 ft | 213 kts | 47° |
| 2026-04-26 02:38 | 25.02101 | 121.17284 | 3034 ft | 213 kts | 47° |
| 2026-04-26 02:38 | 25.03084 | 121.18531 | 3033 ft | 213 kts | 47° |
| 2026-04-26 02:38 | 25.04061 | 121.19772 | 3034 ft | 213 kts | 47° |
| 2026-04-26 02:38 | 25.05027 | 121.20998 | 3034 ft | 212 kts | 47° |
| 2026-04-26 02:39 | 25.06009 | 121.22246 | 3035 ft | 212 kts | 47° |
| 2026-04-26 02:39 | 25.06971 | 121.23469 | 3035 ft | 211 kts | 46° |
| 2026-04-26 02:39 | 25.07933 | 121.24699 | 3035 ft | 211 kts | 47° |
| 2026-04-26 02:39 | 25.08906 | 121.25938 | 3034 ft | 212 kts | 47° |
| 2026-04-26 02:40 | 25.09876 | 121.27171 | 3035 ft | 212 kts | 46° |
| 2026-04-26 02:40 | 25.10838 | 121.28397 | 3034 ft | 212 kts | 47° |
| 2026-04-26 02:40 | 25.11816 | 121.29636 | 3033 ft | 213 kts | 47° |
| 2026-04-26 02:40 | 25.12794 | 121.30874 | 3034 ft | 213 kts | 46° |
| 2026-04-26 02:41 | 25.13766 | 121.32107 | 3034 ft | 213 kts | 46° |
| 2026-04-26 02:41 | 25.14743 | 121.33356 | 3033 ft | 212 kts | 47° |
| 2026-04-26 02:41 | 25.15707 | 121.34598 | 3034 ft | 212 kts | 47° |
| 2026-04-26 02:41 | 25.16667 | 121.35836 | 3033 ft | 212 kts | 47° |
| 2026-04-26 02:42 | 25.17629 | 121.37067 | 3032 ft | 212 kts | 47° |
| 2026-04-26 02:42 | 25.18611 | 121.38316 | 3034 ft | 213 kts | 46° |
| 2026-04-26 02:42 | 25.19586 | 121.39552 | 3035 ft | 212 kts | 47° |
| 2026-04-26 02:42 | 25.20564 | 121.40789 | 3035 ft | 213 kts | 46° |
| 2026-04-26 02:43 | 25.22508 | 121.43265 | 3035 ft | 213 kts | 47° |
| 2026-04-26 02:43 | 25.23482 | 121.44511 | 3037 ft | 212 kts | 46° |
| 2026-04-26 02:43 | 25.24447 | 121.45755 | 3040 ft | 212 kts | 47° |
| 2026-04-26 02:44 | 25.25408 | 121.46986 | 3033 ft | 212 kts | 47° |
| 2026-04-26 02:44 | 25.26381 | 121.48229 | 3035 ft | 212 kts | 46° |
| 2026-04-26 02:44 | 25.27347 | 121.49472 | 3036 ft | 212 kts | 47° |
| 2026-04-26 02:44 | 25.28313 | 121.50717 | 3037 ft | 212 kts | 47° |
| 2026-04-26 02:45 | 25.29283 | 121.51965 | 3042 ft | 212 kts | 46° |
| 2026-04-26 02:45 | 25.30238 | 121.53190 | 3044 ft | 212 kts | 47° |
| 2026-04-26 02:45 | 25.31212 | 121.54433 | 3046 ft | 212 kts | 47° |
| 2026-04-26 02:45 | 25.32190 | 121.55679 | 3044 ft | 212 kts | 47° |
| 2026-04-26 02:46 | 25.33166 | 121.56922 | 3038 ft | 212 kts | 46° |
| 2026-04-26 02:46 | 25.34145 | 121.58175 | 3035 ft | 212 kts | 46° |
| 2026-04-26 02:46 | 25.35119 | 121.59426 | 3026 ft | 212 kts | 46° |
| 2026-04-26 02:46 | 25.36082 | 121.60670 | 3027 ft | 212 kts | 47° |
| 2026-04-26 02:47 | 25.37048 | 121.61923 | 3029 ft | 212 kts | 46° |
| 2026-04-26 02:47 | 25.37999 | 121.63159 | 3029 ft | 212 kts | 47° |
| 2026-04-26 02:47 | 25.38973 | 121.64418 | 3025 ft | 212 kts | 47° |
| 2026-04-26 02:47 | 25.39934 | 121.65659 | 3023 ft | 211 kts | 47° |
| 2026-04-26 02:48 | 25.40888 | 121.66891 | 3022 ft | 211 kts | 47° |
| 2026-04-26 02:48 | 25.41849 | 121.68128 | 3022 ft | 211 kts | 47° |
| 2026-04-26 02:48 | 25.42810 | 121.69360 | 3021 ft | 211 kts | 47° |
| 2026-04-26 02:48 | 25.43782 | 121.70603 | 3021 ft | 211 kts | 46° |
| 2026-04-26 02:49 | 25.44915 | 121.71613 | 3007 ft | 208 kts | 16° |
| 2026-04-26 02:49 | 25.46314 | 121.71578 | 3016 ft | 201 kts | 338° |
| 2026-04-26 02:49 | 25.47414 | 121.70700 | 3018 ft | 195 kts | 310° |
| 2026-04-26 02:49 | 25.48002 | 121.69348 | 3021 ft | 198 kts | 282° |
| 2026-04-26 02:50 | 25.48128 | 121.67815 | 3025 ft | 200 kts | 271° |
| 2026-04-26 02:50 | 25.47652 | 121.66394 | 3011 ft | 207 kts | 228° |
| 2026-04-26 02:50 | 25.46349 | 121.65705 | 3021 ft | 213 kts | 185° |
| 2026-04-26 02:50 | 25.44863 | 121.65717 | 3028 ft | 214 kts | 185° |
| 2026-04-26 02:51 | 25.43458 | 121.65255 | 3023 ft | 211 kts | 213° |
| 2026-04-26 02:51 | 25.42228 | 121.64368 | 3025 ft | 210 kts | 219° |
| 2026-04-26 02:51 | 25.41050 | 121.63412 | 3026 ft | 209 kts | 219° |
| 2026-04-26 02:51 | 25.39882 | 121.62440 | 3026 ft | 210 kts | 220° |
| 2026-04-26 02:52 | 25.38709 | 121.61450 | 3024 ft | 209 kts | 220° |
| 2026-04-26 02:52 | 25.37555 | 121.60467 | 3020 ft | 208 kts | 220° |
| 2026-04-26 02:52 | 25.36456 | 121.59528 | 3021 ft | 208 kts | 220° |
| 2026-04-26 02:52 | 25.35307 | 121.58544 | 3027 ft | 209 kts | 220° |
| 2026-04-26 02:53 | 25.34153 | 121.57554 | 3028 ft | 209 kts | 220° |
| 2026-04-26 02:53 | 25.33009 | 121.56574 | 3025 ft | 209 kts | 220° |
| 2026-04-26 02:53 | 25.31855 | 121.55589 | 3016 ft | 210 kts | 220° |
| 2026-04-26 02:53 | 25.30683 | 121.54592 | 3016 ft | 209 kts | 220° |
| 2026-04-26 02:54 | 25.29527 | 121.53610 | 3018 ft | 209 kts | 220° |
| 2026-04-26 02:54 | 25.28365 | 121.52627 | 3018 ft | 209 kts | 220° |
| 2026-04-26 02:54 | 25.27199 | 121.51648 | 3023 ft | 210 kts | 220° |
| 2026-04-26 02:54 | 25.26022 | 121.50668 | 3029 ft | 210 kts | 220° |
| 2026-04-26 02:55 | 25.24859 | 121.49689 | 3032 ft | 210 kts | 220° |
| 2026-04-26 02:55 | 25.23694 | 121.48701 | 3032 ft | 210 kts | 220° |
| 2026-04-26 02:55 | 25.22538 | 121.47722 | 3032 ft | 210 kts | 220° |
| 2026-04-26 02:55 | 25.21372 | 121.46731 | 3031 ft | 209 kts | 220° |
| 2026-04-26 02:56 | 25.20240 | 121.45704 | 3031 ft | 210 kts | 223° |
| 2026-04-26 02:56 | 25.19092 | 121.44698 | 3032 ft | 210 kts | 220° |
| 2026-04-26 02:56 | 25.17916 | 121.43721 | 3032 ft | 210 kts | 219° |
| 2026-04-26 02:56 | 25.16735 | 121.42747 | 3029 ft | 210 kts | 219° |
| 2026-04-26 02:57 | 25.15550 | 121.41773 | 3030 ft | 210 kts | 219° |
| 2026-04-26 02:57 | 25.14377 | 121.40812 | 3029 ft | 210 kts | 219° |
| 2026-04-26 02:57 | 25.13177 | 121.39835 | 3030 ft | 211 kts | 219° |
| 2026-04-26 02:57 | 25.11994 | 121.38864 | 3030 ft | 211 kts | 219° |
| 2026-04-26 02:58 | 25.10821 | 121.37897 | 3028 ft | 211 kts | 219° |
| 2026-04-26 02:58 | 25.09644 | 121.36925 | 3026 ft | 210 kts | 219° |
| 2026-04-26 02:58 | 25.08465 | 121.35950 | 3025 ft | 210 kts | 219° |
| 2026-04-26 02:58 | 25.07303 | 121.34989 | 3027 ft | 210 kts | 218° |
| 2026-04-26 02:59 | 25.06121 | 121.34006 | 3025 ft | 210 kts | 219° |
| 2026-04-26 02:59 | 25.04951 | 121.33032 | 3026 ft | 210 kts | 219° |
| 2026-04-26 02:59 | 25.03771 | 121.32050 | 3026 ft | 210 kts | 219° |
| 2026-04-26 02:59 | 25.02604 | 121.31081 | 3027 ft | 211 kts | 219° |
| 2026-04-26 03:00 | 25.01432 | 121.30107 | 3029 ft | 211 kts | 219° |
| 2026-04-26 03:00 | 25.00249 | 121.29121 | 3028 ft | 211 kts | 219° |
| 2026-04-26 03:00 | 24.99072 | 121.28139 | 3033 ft | 212 kts | 219° |
| 2026-04-26 03:00 | 24.97903 | 121.27160 | 3034 ft | 211 kts | 219° |
| 2026-04-26 03:01 | 24.96721 | 121.26171 | 3035 ft | 211 kts | 219° |
| 2026-04-26 03:01 | 24.95543 | 121.25191 | 3038 ft | 210 kts | 219° |
| 2026-04-26 03:01 | 24.94371 | 121.24223 | 3040 ft | 210 kts | 219° |
| 2026-04-26 03:01 | 24.93190 | 121.23243 | 3041 ft | 209 kts | 219° |
| 2026-04-26 03:02 | 24.92038 | 121.22285 | 3048 ft | 209 kts | 219° |
| 2026-04-26 03:02 | 24.90866 | 121.21309 | 3050 ft | 209 kts | 219° |
| 2026-04-26 03:02 | 24.89693 | 121.20330 | 3048 ft | 209 kts | 219° |
| 2026-04-26 03:02 | 24.88519 | 121.19355 | 3049 ft | 209 kts | 219° |
| 2026-04-26 03:03 | 24.87352 | 121.18388 | 3053 ft | 208 kts | 219° |
| 2026-04-26 03:03 | 24.86186 | 121.17418 | 3056 ft | 208 kts | 219° |
| 2026-04-26 03:03 | 24.85041 | 121.16459 | 3059 ft | 208 kts | 222° |
| 2026-04-26 03:03 | 24.84237 | 121.15220 | 3100 ft | 192 kts | 258° |
| 2026-04-26 03:04 | 24.84424 | 121.13862 | 3085 ft | 170 kts | 300° |
| 2026-04-26 03:04 | 24.85169 | 121.12941 | 3045 ft | 153 kts | 325° |
| 2026-04-26 03:04 | 24.85962 | 121.12262 | 3017 ft | 138 kts | 307° |
| 2026-04-26 03:04 | 24.86156 | 121.11241 | 3024 ft | 140 kts | 272° |
| 2026-04-26 03:05 | 24.86259 | 121.10179 | 2908 ft | 138 kts | 295° |
| 2026-04-26 03:05 | 24.86647 | 121.09239 | 2890 ft | 137 kts | 291° |
| 2026-04-26 03:05 | 24.87012 | 121.08263 | 2983 ft | 136 kts | 306° |
| 2026-04-26 03:05 | 24.87605 | 121.07449 | 3024 ft | 135 kts | 313° |
| 2026-04-26 03:06 | 24.88244 | 121.06690 | 3032 ft | 135 kts | 315° |
| 2026-04-26 03:06 | 24.88892 | 121.05937 | 3036 ft | 135 kts | 315° |
| 2026-04-26 03:06 | 24.89542 | 121.05182 | 3044 ft | 134 kts | 315° |
| 2026-04-26 03:06 | 24.90203 | 121.04449 | 3036 ft | 134 kts | 326° |
| 2026-04-26 03:07 | 24.91085 | 121.04250 | 3024 ft | 133 kts | 12° |
| 2026-04-26 03:07 | 24.91903 | 121.04704 | 3038 ft | 135 kts | 36° |
| 2026-04-26 03:07 | 24.92626 | 121.05417 | 3026 ft | 136 kts | 43° |
| 2026-04-26 03:07 | 24.93288 | 121.06168 | 3026 ft | 136 kts | 44° |
| 2026-04-26 03:08 | 24.93929 | 121.06929 | 3018 ft | 135 kts | 46° |
| 2026-04-26 03:08 | 24.94557 | 121.07696 | 3018 ft | 134 kts | 46° |
| 2026-04-26 03:08 | 24.95181 | 121.08471 | 3019 ft | 135 kts | 46° |
| 2026-04-26 03:08 | 24.95804 | 121.09254 | 3018 ft | 135 kts | 46° |
| 2026-04-26 03:09 | 24.96432 | 121.10050 | 2884 ft | 136 kts | 46° |
| 2026-04-26 03:09 | 24.97050 | 121.10838 | 2739 ft | 133 kts | 47° |
| 2026-04-26 03:09 | 24.97643 | 121.11596 | 2560 ft | 130 kts | 47° |
| 2026-04-26 03:09 | 24.98235 | 121.12353 | 2389 ft | 129 kts | 48° |
| 2026-04-26 03:10 | 24.98823 | 121.13104 | 2219 ft | 129 kts | 47° |
| 2026-04-26 03:10 | 24.99408 | 121.13850 | 2052 ft | 128 kts | 48° |
| 2026-04-26 03:10 | 24.99992 | 121.14597 | 1880 ft | 128 kts | 48° |
| 2026-04-26 03:10 | 25.00574 | 121.15337 | 1716 ft | 128 kts | 49° |
| 2026-04-26 03:11 | 25.01157 | 121.16080 | 1556 ft | 128 kts | 49° |
| 2026-04-26 03:11 | 25.01738 | 121.16818 | 1392 ft | 127 kts | 49° |
| 2026-04-26 03:11 | 25.02322 | 121.17562 | 1225 ft | 127 kts | 47° |
| 2026-04-26 03:11 | 25.02906 | 121.18305 | 1061 ft | 127 kts | 48° |
| 2026-04-26 03:12 | 25.03484 | 121.19043 | 899 ft | 126 kts | 47° |
| 2026-04-26 03:12 | 25.04056 | 121.19770 | 741 ft | 126 kts | 49° |
| 2026-04-26 03:12 | 25.04634 | 121.20505 | 577 ft | 126 kts | 48° |
| 2026-04-26 03:12 | 25.05213 | 121.21244 | 410 ft | 125 kts | 47° |
| 2026-04-26 03:13 | 25.05780 | 121.21953 | 238 ft | 123 kts | 48° |
| 2026-04-26 03:13 | 25.06321 | 121.22652 | 124 ft | 115 kts | 48° |
| 2026-04-26 03:13 | 25.06777 | 121.23229 | 117 ft | 65 kts | 49° |
| 2026-04-26 03:13 | 25.06998 | 121.23512 | 117 ft | 44 kts | 50° |
| 2026-04-26 03:14 | 25.07228 | 121.23704 | 117 ft | 39 kts | 23° |
| 2026-04-26 03:14 | 25.07380 | 121.23715 | 117 ft | 16 kts | 330° |
| 2026-04-26 03:14 | 25.07470 | 121.23636 | 117 ft | 17 kts | 317° |
| 2026-04-26 03:14 | 25.07564 | 121.23553 | 117 ft | 17 kts | 319° |
| 2026-04-26 03:15 | 25.07629 | 121.23492 | 117 ft | 6 kts | 319° |
| 2026-04-26 03:15 | 25.07640 | 121.23481 | 117 ft | 0 kts | 320° |
| 2026-04-26 03:15 | 25.07643 | 121.23478 | 117 ft | 0 kts | 320° |